Time;durP1;ratioP1;P1;durP2;ratioP2;P2;SDS_P1;SDS_P2;PMS_P1;PMS_P2;Temp;Humidity;BMP_temperature;BMP_pressure;BME280_temperature;BME280_humidity;BME280_pressure;Samples;Min_cycle;Max_cycle;Signal;HPM_P1;HPM_P2
2023/05/30 00:01:51;;;;;;;18.65;8.98;;;;;;;;;;5067544;28;20108;-59
2023/05/30 00:04:17;;;;;;;21.45;10.25;;;;;;;;;;5051317;28;20086;-55
2023/05/30 00:06:43;;;;;;;20.35;8.60;;;;;;;;;;5051931;28;20032;-62
2023/05/30 00:09:09;;;;;;;21.58;9.18;;;;;;;;;;5051840;28;20096;-61
2023/05/30 00:11:35;;;;;;;21.90;8.98;;;;;;;;;;5051797;28;20443;-63
2023/05/30 00:14:02;;;;;;;18.25;8.50;;;;;;;;;;5051069;28;20017;-62
2023/05/30 00:16:29;;;;;;;23.27;9.15;;;;;;;;;;5033690;28;20036;-63
2023/05/30 00:18:56;;;;;;;23.63;9.35;;;;;;;;;;5051825;28;20021;-64
2023/05/30 00:21:22;;;;;;;24.08;9.20;;;;;;;;;;5051961;28;20044;-61
2023/05/30 00:23:49;;;;;;;25.88;9.50;;;;;;;;;;5051618;28;20421;-59
2023/05/30 00:26:15;;;;;;;20.05;8.63;;;;;;;;;;5050856;28;20021;-56
2023/05/30 00:28:42;;;;;;;20.25;9.25;;;;;;;;;;5051597;28;20017;-61
2023/05/30 00:31:08;;;;;;;22.55;9.05;;;;;;;;;;5033137;28;20017;-62
2023/05/30 00:33:34;;;;;;;24.60;9.45;;;;;;;;;;5062928;22;20057;-62
2023/05/30 00:36:00;;;;;;;24.02;9.65;;;;;;;;;;5012285;28;20076;-64
2023/05/30 00:38:26;;;;;;;21.92;8.90;;;;;;;;;;5012918;28;20063;-63
2023/05/30 00:40:52;;;;;;;22.60;8.70;;;;;;;;;;5030492;28;20601;-62
2023/05/30 00:43:18;;;;;;;24.17;8.95;;;;;;;;;;5030930;28;20104;-63
2023/05/30 00:45:45;;;;;;;24.60;8.32;;;;;;;;;;5029904;28;20043;-62
2023/05/30 00:48:11;;;;;;;22.17;9.25;;;;;;;;;;5013325;28;20041;-63
2023/05/30 00:50:38;;;;;;;23.70;9.85;;;;;;;;;;5013477;28;20038;-63
2023/05/30 00:53:04;;;;;;;23.60;8.38;;;;;;;;;;5030828;28;20105;-62
2023/05/30 00:55:30;;;;;;;23.20;8.80;;;;;;;;;;5029948;28;20109;-62
2023/05/30 00:57:57;;;;;;;19.55;8.60;;;;;;;;;;5030921;28;20053;-63
2023/05/30 01:00:24;;;;;;;27.58;9.75;;;;;;;;;;5030559;28;20057;-63
2023/05/30 01:02:51;;;;;;;23.88;8.60;;;;;;;;;;5030749;28;20029;-63
2023/05/30 01:05:17;;;;;;;23.08;8.90;;;;;;;;;;5012278;28;20026;-63
2023/05/30 01:07:44;;;;;;;23.77;8.07;;;;;;;;;;5030455;28;20500;-62
2023/05/30 01:10:16;;;;;;;19.88;8.38;;;;;;;;;;5030759;28;20068;-64
2023/05/30 01:13:04;;;;;;;27.52;9.50;;;;;;;;;;5030667;28;20049;-62
2023/05/30 01:15:32;;;;;;;27.88;9.18;;;;;;;;;;5030160;28;20034;-62
2023/05/30 01:18:12;;;;;;;25.77;9.48;;;;;;;;;;5013143;28;20040;-63
2023/05/30 01:20:50;;;;;;;22.05;8.68;;;;;;;;;;5031048;28;20025;-63
2023/05/30 01:23:17;;;;;;;23.27;9.02;;;;;;;;;;5012771;28;20025;-63
2023/05/30 01:25:49;;;;;;;21.70;9.10;;;;;;;;;;5012648;28;20056;-63
2023/05/30 01:28:21;;;;;;;24.20;9.85;;;;;;;;;;5030671;28;20032;-62
2023/05/30 01:30:48;;;;;;;24.50;8.27;;;;;;;;;;5030622;28;20048;-63
2023/05/30 01:33:15;;;;;;;19.80;8.15;;;;;;;;;;5012823;28;20175;-64
2023/05/30 01:35:44;;;;;;;21.38;9.00;;;;;;;;;;5030490;28;20079;-63
2023/05/30 01:38:10;;;;;;;20.98;8.65;;;;;;;;;;5012996;28;20031;-63
2023/05/30 01:40:37;;;;;;;36.53;8.70;;;;;;;;;;5030315;28;20151;-63
2023/05/30 01:43:12;;;;;;;25.33;8.90;;;;;;;;;;5014552;28;20765;-62
2023/05/30 01:45:42;;;;;;;26.17;9.27;;;;;;;;;;5033184;28;20036;-63
2023/05/30 01:48:15;;;;;;;22.02;9.57;;;;;;;;;;5034361;28;20049;-63
2023/05/30 01:50:44;;;;;;;20.08;9.15;;;;;;;;;;5034836;28;20025;-64
2023/05/30 01:53:12;;;;;;;21.95;8.32;;;;;;;;;;5034028;28;20066;-62
2023/05/30 01:55:41;;;;;;;24.75;9.60;;;;;;;;;;5033514;28;20028;-63
2023/05/30 01:58:08;;;;;;;23.63;8.68;;;;;;;;;;5033758;28;20489;-63
2023/05/30 02:00:34;;;;;;;26.77;9.55;;;;;;;;;;5033671;28;20035;-63
2023/05/30 02:03:00;;;;;;;23.20;9.20;;;;;;;;;;5033544;28;20021;-63
2023/05/30 02:05:26;;;;;;;25.65;9.68;;;;;;;;;;5015369;28;20029;-63
2023/05/30 02:07:52;;;;;;;21.98;8.75;;;;;;;;;;5033422;28;20029;-65
2023/05/30 02:10:18;;;;;;;27.52;9.10;;;;;;;;;;5015699;28;20087;-63
2023/05/30 02:12:44;;;;;;;26.42;9.02;;;;;;;;;;5033405;28;20105;-63
2023/05/30 02:15:11;;;;;;;23.50;9.90;;;;;;;;;;5032467;28;20026;-63
2023/05/30 02:17:38;;;;;;;27.20;9.77;;;;;;;;;;5033094;28;20404;-62
2023/05/30 02:20:05;;;;;;;23.77;9.02;;;;;;;;;;5033104;28;20037;-62
2023/05/30 02:22:31;;;;;;;25.27;10.07;;;;;;;;;;5033044;28;20435;-63
2023/05/30 02:24:57;;;;;;;22.55;8.63;;;;;;;;;;5032313;28;20022;-63
2023/05/30 02:27:24;;;;;;;29.73;11.50;;;;;;;;;;5032880;28;20128;-61
2023/05/30 02:29:50;;;;;;;22.33;10.05;;;;;;;;;;5032791;28;20017;-63
2023/05/30 02:32:16;;;;;;;27.83;8.95;;;;;;;;;;5032709;28;20362;-63
2023/05/30 02:34:42;;;;;;;26.75;9.38;;;;;;;;;;5032267;28;20087;-63
2023/05/30 02:37:08;;;;;;;27.13;10.30;;;;;;;;;;5032828;28;20021;-60
2023/05/30 02:39:34;;;;;;;21.20;10.10;;;;;;;;;;5033134;28;20083;-62
2023/05/30 02:42:01;;;;;;;24.88;10.85;;;;;;;;;;5032773;28;20823;-63
2023/05/30 02:44:27;;;;;;;22.83;9.20;;;;;;;;;;5031779;28;20091;-62
2023/05/30 02:46:53;;;;;;;23.85;9.63;;;;;;;;;;5032773;28;20033;-62
2023/05/30 02:49:19;;;;;;;26.75;9.43;;;;;;;;;;5032709;28;20025;-62
2023/05/30 02:51:45;;;;;;;22.85;9.82;;;;;;;;;;5032819;28;20085;-63
2023/05/30 02:54:11;;;;;;;24.38;9.07;;;;;;;;;;5013302;28;20521;-62
2023/05/30 02:56:37;;;;;;;22.27;9.48;;;;;;;;;;5032797;28;20143;-63
2023/05/30 02:59:03;;;;;;;24.13;10.38;;;;;;;;;;5032157;28;20025;-63
2023/05/30 03:01:29;;;;;;;21.58;10.05;;;;;;;;;;5032415;28;20097;-64
2023/05/30 03:03:55;;;;;;;22.42;9.68;;;;;;;;;;5031708;28;20497;-63
2023/05/30 03:06:21;;;;;;;23.55;9.93;;;;;;;;;;5031706;28;20075;-61
2023/05/30 03:08:56;;;;;;;26.73;10.32;;;;;;;;;;5032371;28;20108;-61
2023/05/30 03:11:22;;;;;;;24.65;10.38;;;;;;;;;;5032472;28;20017;-63
2023/05/30 03:13:50;;;;;;;24.08;10.32;;;;;;;;;;5014409;28;20030;-63
2023/05/30 03:16:16;;;;;;;21.10;10.27;;;;;;;;;;5031554;28;20071;-63
2023/05/30 03:18:42;;;;;;;29.83;11.23;;;;;;;;;;5032376;28;20264;-62
2023/05/30 03:21:09;;;;;;;28.63;11.55;;;;;;;;;;5031751;28;20396;-64
2023/05/30 03:23:35;;;;;;;18.27;10.02;;;;;;;;;;5031943;28;20033;-63
2023/05/30 03:26:03;;;;;;;23.02;11.15;;;;;;;;;;5031343;28;20079;-64
2023/05/30 03:28:29;;;;;;;28.35;10.65;;;;;;;;;;5036653;28;20103;-62
2023/05/30 03:30:56;;;;;;;24.75;10.90;;;;;;;;;;5022175;28;20401;-63
2023/05/30 03:33:22;;;;;;;26.98;11.02;;;;;;;;;;5043478;28;20025;-62
2023/05/30 03:35:48;;;;;;;26.25;10.40;;;;;;;;;;5042117;28;20393;-64
2023/05/30 03:38:14;;;;;;;27.00;11.50;;;;;;;;;;5050730;28;20043;-63
2023/05/30 03:40:40;;;;;;;26.40;11.35;;;;;;;;;;5030359;28;20051;-63
2023/05/30 03:43:06;;;;;;;32.05;12.15;;;;;;;;;;5042753;28;20527;-62
2023/05/30 03:45:32;;;;;;;24.48;11.18;;;;;;;;;;5032612;28;20060;-64
2023/05/30 03:47:58;;;;;;;21.35;11.35;;;;;;;;;;5051950;28;20025;-64
2023/05/30 03:50:24;;;;;;;25.85;11.60;;;;;;;;;;5051973;28;20069;-63
2023/05/30 03:52:50;;;;;;;22.75;10.30;;;;;;;;;;5051306;28;20100;-62
2023/05/30 03:55:16;;;;;;;25.15;11.10;;;;;;;;;;5050779;28;20072;-63
2023/05/30 03:57:42;;;;;;;24.67;11.30;;;;;;;;;;5033760;28;20029;-63
2023/05/30 04:00:08;;;;;;;20.65;10.20;;;;;;;;;;5047542;28;20040;-63
2023/05/30 04:02:35;;;;;;;23.60;11.18;;;;;;;;;;5023141;28;20080;-63
2023/05/30 04:05:01;;;;;;;24.98;11.30;;;;;;;;;;5050104;28;20549;-63
2023/05/30 04:07:27;;;;;;;23.35;11.70;;;;;;;;;;5050792;28;20028;-62
2023/05/30 04:09:53;;;;;;;21.80;10.60;;;;;;;;;;5032992;28;20318;-62
2023/05/30 04:12:19;;;;;;;25.52;11.10;;;;;;;;;;5051117;28;20056;-62
2023/05/30 04:14:45;;;;;;;27.02;11.00;;;;;;;;;;5050648;28;20017;-62
2023/05/30 04:17:11;;;;;;;23.85;11.15;;;;;;;;;;5051071;28;20495;-63
2023/05/30 04:19:37;;;;;;;25.77;10.85;;;;;;;;;;5051419;28;20035;-63
2023/05/30 04:22:03;;;;;;;37.42;13.02;;;;;;;;;;5051305;28;20033;-63
2023/05/30 04:24:31;;;;;;;24.70;12.13;;;;;;;;;;5050140;28;20465;-64
2023/05/30 04:26:57;;;;;;;27.60;11.50;;;;;;;;;;5050797;28;20045;-63
2023/05/30 04:29:23;;;;;;;24.25;10.82;;;;;;;;;;5051014;28;20029;-63
2023/05/30 04:31:49;;;;;;;30.10;11.05;;;;;;;;;;5051042;28;20072;-62
2023/05/30 04:34:17;;;;;;;25.65;10.70;;;;;;;;;;5050241;28;20079;-63
2023/05/30 04:36:44;;;;;;;25.23;10.70;;;;;;;;;;5051378;28;20032;-63
2023/05/30 04:39:10;;;;;;;23.20;11.60;;;;;;;;;;5049685;28;20277;-62
2023/05/30 04:41:36;;;;;;;20.63;10.75;;;;;;;;;;5051158;28;20022;-65
2023/05/30 04:44:03;;;;;;;22.85;10.80;;;;;;;;;;5050287;28;20021;-63
2023/05/30 04:46:30;;;;;;;27.38;12.05;;;;;;;;;;5051093;28;20021;-64
2023/05/30 04:49:00;;;;;;;21.52;11.82;;;;;;;;;;5050339;28;20025;-60
2023/05/30 04:51:26;;;;;;;23.48;12.50;;;;;;;;;;5050434;28;20611;-62
2023/05/30 04:53:52;;;;;;;20.95;11.90;;;;;;;;;;5050105;28;20493;-63
2023/05/30 04:56:20;;;;;;;28.77;11.43;;;;;;;;;;5050481;28;20053;-62
2023/05/30 04:58:46;;;;;;;22.67;12.32;;;;;;;;;;5032613;28;20060;-64
2023/05/30 05:01:13;;;;;;;23.95;11.55;;;;;;;;;;5050227;28;20135;-63
2023/05/30 05:03:40;;;;;;;28.92;12.70;;;;;;;;;;5050127;28;20039;-63
2023/05/30 05:06:06;;;;;;;23.20;11.23;;;;;;;;;;5049608;28;20499;-64
2023/05/30 05:08:33;;;;;;;24.58;12.40;;;;;;;;;;5031985;28;20056;-62
2023/05/30 05:11:00;;;;;;;27.15;12.07;;;;;;;;;;5050132;28;20365;-63
2023/05/30 05:13:26;;;;;;;23.58;12.18;;;;;;;;;;5049825;28;20017;-64
2023/05/30 05:15:52;;;;;;;26.35;12.25;;;;;;;;;;5031330;28;20200;-63
2023/05/30 05:18:18;;;;;;;24.63;11.80;;;;;;;;;;5053310;28;20425;-63
2023/05/30 05:20:44;;;;;;;26.27;12.68;;;;;;;;;;5053778;28;20020;-63
2023/05/30 05:23:10;;;;;;;23.05;13.25;;;;;;;;;;5053873;28;20402;-63
2023/05/30 05:25:36;;;;;;;25.15;13.77;;;;;;;;;;5052706;28;20082;-64
2023/05/30 05:28:02;;;;;;;22.52;12.07;;;;;;;;;;5053203;28;20032;-63
2023/05/30 05:30:28;;;;;;;27.92;13.18;;;;;;;;;;5053435;28;20021;-63
2023/05/30 05:32:54;;;;;;;36.78;17.08;;;;;;;;;;5053184;28;20782;-62
2023/05/30 05:35:20;;;;;;;22.60;12.13;;;;;;;;;;5034805;28;20025;-63
2023/05/30 05:37:46;;;;;;;24.25;12.77;;;;;;;;;;5051418;28;20481;-65
2023/05/30 05:40:13;;;;;;;28.90;17.65;;;;;;;;;;5053395;28;20040;-61
2023/05/30 05:42:39;;;;;;;28.73;12.20;;;;;;;;;;5053219;28;20032;-63
2023/05/30 05:45:05;;;;;;;24.92;11.90;;;;;;;;;;5054257;28;20029;-67
2023/05/30 05:47:32;;;;;;;25.92;12.75;;;;;;;;;;5056821;28;20059;-64
2023/05/30 05:49:58;;;;;;;23.02;12.32;;;;;;;;;;5053751;28;20080;-63
2023/05/30 05:52:24;;;;;;;23.02;12.75;;;;;;;;;;5053887;28;20021;-59
2023/05/30 05:54:50;;;;;;;26.35;12.88;;;;;;;;;;5052800;28;20066;-64
2023/05/30 05:57:16;;;;;;;24.55;13.52;;;;;;;;;;5035188;28;20036;-63
2023/05/30 05:59:42;;;;;;;28.35;15.32;;;;;;;;;;5052947;28;20029;-63
2023/05/30 06:02:08;;;;;;;22.75;12.32;;;;;;;;;;5034987;28;20025;-57
2023/05/30 06:04:34;;;;;;;24.30;13.23;;;;;;;;;;5051926;28;20032;-61
2023/05/30 06:07:00;;;;;;;21.73;12.55;;;;;;;;;;5052524;28;20029;-63
2023/05/30 06:09:30;;;;;;;23.35;13.07;;;;;;;;;;5052842;28;20029;-63
2023/05/30 06:12:00;;;;;;;22.02;12.05;;;;;;;;;;5052519;28;20500;-61
2023/05/30 06:14:26;;;;;;;26.85;12.52;;;;;;;;;;5032449;28;20029;-63
2023/05/30 06:16:53;;;;;;;20.10;12.00;;;;;;;;;;5032513;28;20021;-63
2023/05/30 06:19:19;;;;;;;20.08;10.93;;;;;;;;;;5032324;28;20052;-63
2023/05/30 06:21:45;;;;;;;25.05;12.10;;;;;;;;;;5032524;28;20367;-63
2023/05/30 06:24:11;;;;;;;19.48;11.75;;;;;;;;;;5031711;28;20022;-59
2023/05/30 06:26:37;;;;;;;22.17;12.02;;;;;;;;;;5032479;28;20104;-63
2023/05/30 06:29:03;;;;;;;23.77;12.45;;;;;;;;;;5031752;28;20100;-64
2023/05/30 06:31:29;;;;;;;22.42;11.90;;;;;;;;;;5032467;28;20021;-62
2023/05/30 06:33:55;;;;;;;21.83;12.30;;;;;;;;;;5072231;22;20145;-61
2023/05/30 06:36:21;;;;;;;27.10;12.88;;;;;;;;;;5084760;28;20024;-62
2023/05/30 06:38:47;;;;;;;20.35;12.05;;;;;;;;;;5083497;28;20591;-58
2023/05/30 06:41:13;;;;;;;25.00;12.65;;;;;;;;;;5084911;28;20021;-61
2023/05/30 06:43:39;;;;;;;22.13;12.52;;;;;;;;;;5100604;28;20445;-62
2023/05/30 06:46:06;;;;;;;20.77;12.40;;;;;;;;;;5100820;28;20028;-61
2023/05/30 06:48:32;;;;;;;25.65;13.80;;;;;;;;;;5084709;28;20083;-62
2023/05/30 06:50:58;;;;;;;21.67;12.43;;;;;;;;;;5100465;28;20476;-61
2023/05/30 06:53:24;;;;;;;26.30;13.70;;;;;;;;;;5091523;28;20024;-60
2023/05/30 06:55:50;;;;;;;23.20;13.15;;;;;;;;;;5103823;28;20061;-62
2023/05/30 06:58:18;;;;;;;21.33;13.05;;;;;;;;;;5112116;28;20073;-62
2023/05/30 07:00:44;;;;;;;23.83;13.88;;;;;;;;;;5113398;28;20051;-61
2023/05/30 07:03:10;;;;;;;20.52;12.80;;;;;;;;;;5113058;28;20035;-61
2023/05/30 07:05:37;;;;;;;27.55;14.82;;;;;;;;;;5105228;28;20035;-60
2023/05/30 07:08:03;;;;;;;38.53;14.65;;;;;;;;;;5104692;28;20024;-60
2023/05/30 07:10:29;;;;;;;23.05;12.35;;;;;;;;;;5101869;28;20108;-59
2023/05/30 07:12:55;;;;;;;22.20;12.57;;;;;;;;;;5113423;28;20020;-62
2023/05/30 07:15:21;;;;;;;21.00;12.82;;;;;;;;;;5096086;28;20020;-61
2023/05/30 07:17:47;;;;;;;22.23;13.32;;;;;;;;;;5092552;28;20073;-62
2023/05/30 07:20:14;;;;;;;22.85;13.52;;;;;;;;;;5092235;28;20028;-62
2023/05/30 07:22:40;;;;;;;23.40;12.80;;;;;;;;;;5091058;28;20024;-60
2023/05/30 07:25:06;;;;;;;20.00;13.25;;;;;;;;;;5091439;28;20027;-62
2023/05/30 07:27:32;;;;;;;20.13;12.80;;;;;;;;;;5091811;28;20047;-61
2023/05/30 07:29:58;;;;;;;21.27;12.93;;;;;;;;;;5091732;28;20028;-61
2023/05/30 07:32:24;;;;;;;24.13;13.70;;;;;;;;;;5091462;28;20035;-59
2023/05/30 07:34:50;;;;;;;23.77;13.52;;;;;;;;;;5090613;28;20031;-61
2023/05/30 07:37:16;;;;;;;20.35;13.00;;;;;;;;;;5091484;28;20028;-60
2023/05/30 07:39:43;;;;;;;22.63;13.57;;;;;;;;;;5091281;28;20024;-61
2023/05/30 07:42:09;;;;;;;24.30;13.77;;;;;;;;;;5088977;28;20081;-62
2023/05/30 07:44:35;;;;;;;19.70;13.48;;;;;;;;;;5090789;28;20073;-62
2023/05/30 07:47:02;;;;;;;22.42;13.73;;;;;;;;;;5091801;28;20032;-62
2023/05/30 07:49:28;;;;;;;23.73;13.63;;;;;;;;;;5091782;28;20077;-63
2023/05/30 07:51:54;;;;;;;24.63;13.60;;;;;;;;;;5090426;28;20020;-63
2023/05/30 07:54:20;;;;;;;23.38;14.00;;;;;;;;;;5081805;28;20043;-59
2023/05/30 07:56:46;;;;;;;23.30;14.00;;;;;;;;;;5082470;28;20099;-61
2023/05/30 07:59:12;;;;;;;22.30;13.07;;;;;;;;;;5085308;28;20050;-60
2023/05/30 08:01:38;;;;;;;22.05;13.13;;;;;;;;;;5089853;28;20472;-60
2023/05/30 08:04:04;;;;;;;21.92;13.63;;;;;;;;;;5089990;28;20035;-58
2023/05/30 08:06:31;;;;;;;20.52;12.57;;;;;;;;;;5091021;28;20020;-60
2023/05/30 08:08:57;;;;;;;23.90;13.27;;;;;;;;;;5096277;28;20032;-61
2023/05/30 08:11:25;;;;;;;22.13;12.40;;;;;;;;;;5098889;28;20093;-62
2023/05/30 08:13:52;;;;;;;25.30;12.80;;;;;;;;;;5073204;28;20024;-62
2023/05/30 08:16:18;;;;;;;23.13;12.30;;;;;;;;;;5099910;28;20107;-62
2023/05/30 08:18:45;;;;;;;26.25;14.23;;;;;;;;;;5096101;28;20022;-60
2023/05/30 08:21:13;;;;;;;25.17;14.65;;;;;;;;;;5097771;28;20024;-60
2023/05/30 08:23:39;;;;;;;20.02;12.85;;;;;;;;;;5094169;28;20028;-61
2023/05/30 08:26:08;;;;;;;23.40;13.25;;;;;;;;;;5092442;28;20020;-61
2023/05/30 08:28:34;;;;;;;23.20;13.50;;;;;;;;;;5072781;28;20028;-55
2023/05/30 08:31:00;;;;;;;22.20;13.32;;;;;;;;;;5070928;28;20475;-59
2023/05/30 08:33:26;;;;;;;23.85;13.25;;;;;;;;;;5070680;28;20029;-59
2023/05/30 08:35:52;;;;;;;23.77;14.10;;;;;;;;;;5069652;28;20021;-60
2023/05/30 08:38:18;;;;;;;27.25;13.43;;;;;;;;;;5069108;28;20032;-55
2023/05/30 08:40:45;;;;;;;33.33;13.90;;;;;;;;;;5082508;28;20100;-59
2023/05/30 08:43:11;;;;;;;22.05;13.82;;;;;;;;;;5087469;28;20074;-58
2023/05/30 08:45:38;;;;;;;24.05;13.75;;;;;;;;;;5089443;28;20031;-59
2023/05/30 08:48:05;;;;;;;26.58;13.50;;;;;;;;;;5090729;28;20024;-54
2023/05/30 08:50:32;;;;;;;23.30;13.93;;;;;;;;;;5091155;28;20036;-56
2023/05/30 08:53:04;;;;;;;24.02;13.50;;;;;;;;;;5095356;28;20024;-56
2023/05/30 08:55:40;;;;;;;27.00;15.50;;;;;;;;;;5093846;28;20036;-57
2023/05/30 08:58:10;;;;;;;21.00;13.88;;;;;;;;;;5094520;28;20028;-54
2023/05/30 09:00:36;;;;;;;27.58;15.93;;;;;;;;;;5094600;28;20118;-59
2023/05/30 09:03:05;;;;;;;21.38;13.77;;;;;;;;;;5094866;28;20020;-56
2023/05/30 09:05:33;;;;;;;22.70;14.20;;;;;;;;;;5093525;28;20376;-59
2023/05/30 09:08:00;;;;;;;23.08;14.38;;;;;;;;;;5093865;28;20036;-55
2023/05/30 09:10:26;;;;;;;23.23;13.88;;;;;;;;;;5094292;28;20020;-56
2023/05/30 09:12:52;;;;;;;22.05;13.45;;;;;;;;;;5094468;28;20020;-52
2023/05/30 09:15:18;;;;;;;22.13;14.43;;;;;;;;;;5078036;28;20182;-56
2023/05/30 09:17:45;;;;;;;20.70;13.77;;;;;;;;;;5074341;28;20036;-52
2023/05/30 09:20:16;;;;;;;27.40;14.95;;;;;;;;;;5076995;28;20039;-59
2023/05/30 09:22:43;;;;;;;26.17;14.90;;;;;;;;;;5093899;28;20028;-60
2023/05/30 09:25:09;;;;;;;22.48;13.77;;;;;;;;;;5093690;28;20078;-57
2023/05/30 09:27:36;;;;;;;22.67;13.57;;;;;;;;;;5094436;28;20047;-59
2023/05/30 09:30:09;;;;;;;21.85;13.80;;;;;;;;;;5094182;28;20027;-60
2023/05/30 09:32:36;;;;;;;19.52;13.57;;;;;;;;;;5094006;28;20115;-56
2023/05/30 09:35:07;;;;;;;24.77;14.20;;;;;;;;;;5093358;28;20040;-60
2023/05/30 09:37:43;;;;;;;24.98;14.80;;;;;;;;;;5092623;28;20020;-55
2023/05/30 09:40:11;;;;;;;24.10;14.10;;;;;;;;;;5091368;28;20024;-59
2023/05/30 09:42:41;;;;;;;19.80;14.00;;;;;;;;;;5093959;28;20024;-55
2023/05/30 09:45:16;;;;;;;24.38;14.20;;;;;;;;;;5090683;28;20028;-55
2023/05/30 09:47:44;;;;;;;18.75;13.80;;;;;;;;;;5093610;28;20310;-57
2023/05/30 09:50:12;;;;;;;23.25;14.45;;;;;;;;;;5093706;28;20012;-57
2023/05/30 09:52:38;;;;;;;23.98;14.75;;;;;;;;;;5093738;28;20028;-60
2023/05/30 09:55:06;;;;;;;21.75;14.30;;;;;;;;;;5093370;28;20387;-59
2023/05/30 09:57:33;;;;;;;21.63;13.10;;;;;;;;;;5094007;28;20091;-58
2023/05/30 10:00:00;;;;;;;21.88;14.35;;;;;;;;;;5093372;28;20032;-66
2023/05/30 10:02:26;;;;;;;23.83;13.50;;;;;;;;;;5092911;28;20028;-65
2023/05/30 10:04:52;;;;;;;23.00;13.90;;;;;;;;;;5091898;28;20060;-64
2023/05/30 10:07:22;;;;;;;26.70;15.65;;;;;;;;;;5098813;28;20060;-57
2023/05/30 10:09:51;;;;;;;21.65;14.35;;;;;;;;;;5093642;28;20024;-59
2023/05/30 10:12:17;;;;;;;23.75;15.50;;;;;;;;;;5096744;28;20106;-55
2023/05/30 10:14:43;;;;;;;21.13;14.18;;;;;;;;;;5103001;28;20076;-56
2023/05/30 10:17:14;;;;;;;21.10;14.00;;;;;;;;;;5093501;28;20106;-57
2023/05/30 10:19:44;;;;;;;25.92;14.65;;;;;;;;;;5094304;28;20081;-59
2023/05/30 10:22:12;;;;;;;24.23;14.73;;;;;;;;;;5093183;28;20036;-58
2023/05/30 10:24:40;;;;;;;27.67;15.60;;;;;;;;;;5092454;28;20035;-57
2023/05/30 10:27:07;;;;;;;21.33;14.00;;;;;;;;;;5094809;28;20035;-56
2023/05/30 10:29:42;;;;;;;24.33;14.50;;;;;;;;;;5092985;28;20027;-55
2023/05/30 10:32:08;;;;;;;21.67;14.07;;;;;;;;;;5092634;28;20472;-61
2023/05/30 10:34:37;;;;;;;24.55;18.27;;;;;;;;;;5090232;28;20024;-59
2023/05/30 10:37:03;;;;;;;23.88;14.27;;;;;;;;;;5092808;28;20039;-57
2023/05/30 10:39:33;;;;;;;24.58;13.63;;;;;;;;;;5092609;28;20040;-61
2023/05/30 10:42:02;;;;;;;25.05;13.65;;;;;;;;;;5090092;28;20024;-58
2023/05/30 10:44:35;;;;;;;20.90;14.30;;;;;;;;;;5088643;28;20020;-58
2023/05/30 10:47:07;;;;;;;23.50;14.45;;;;;;;;;;5091203;28;20031;-55
2023/05/30 10:49:33;;;;;;;22.88;13.60;;;;;;;;;;5094844;28;20039;-58
2023/05/30 10:52:03;;;;;;;22.70;13.20;;;;;;;;;;5092193;28;20016;-59
2023/05/30 10:54:30;;;;;;;23.90;13.40;;;;;;;;;;5091746;28;20027;-57
2023/05/30 10:56:57;;;;;;;22.02;14.25;;;;;;;;;;5091470;28;20388;-56
2023/05/30 10:59:24;;;;;;;22.85;14.20;;;;;;;;;;5092151;28;20024;-57
2023/05/30 11:02:06;;;;;;;23.17;14.52;;;;;;;;;;5092531;28;20395;-58
2023/05/30 11:04:34;;;;;;;20.05;14.30;;;;;;;;;;5091965;28;20054;-59
2023/05/30 11:07:01;;;;;;;21.98;13.88;;;;;;;;;;5092402;28;20024;-58
2023/05/30 11:09:28;;;;;;;23.17;14.25;;;;;;;;;;5092151;28;20378;-58
2023/05/30 11:11:53;;;;;;;24.52;15.68;;;;;;;;;;5092828;28;20020;-57
2023/05/30 11:14:24;;;;;;;23.45;13.95;;;;;;;;;;5085483;28;20047;-57
2023/05/30 11:16:57;;;;;;;20.80;14.05;;;;;;;;;;5085436;28;20517;-53
2023/05/30 11:19:27;;;;;;;22.45;14.77;;;;;;;;;;5090107;28;20020;-58
2023/05/30 11:22:00;;;;;;;25.25;14.38;;;;;;;;;;5091034;28;20023;-58
2023/05/30 11:24:27;;;;;;;18.85;13.75;;;;;;;;;;5088817;28;20110;-55
2023/05/30 11:26:54;;;;;;;20.77;14.55;;;;;;;;;;5091771;28;20044;-58
2023/05/30 11:29:44;;;;;;;19.65;14.38;;;;;;;;;;5090275;28;20016;-54
2023/05/30 11:32:13;;;;;;;26.80;15.57;;;;;;;;;;5091054;28;20361;-57
2023/05/30 11:34:39;;;;;;;21.20;14.65;;;;;;;;;;5091110;28;20380;-58
2023/05/30 11:37:06;;;;;;;23.08;14.45;;;;;;;;;;5092249;28;20039;-57
2023/05/30 11:39:32;;;;;;;19.05;13.95;;;;;;;;;;5090857;28;20089;-57
2023/05/30 11:41:59;;;;;;;22.48;14.88;;;;;;;;;;5088837;28;20047;-58
2023/05/30 11:44:25;;;;;;;24.13;15.02;;;;;;;;;;5088460;28;20024;-56
2023/05/30 11:46:58;;;;;;;21.25;15.00;;;;;;;;;;5087735;28;20032;-58
2023/05/30 11:49:25;;;;;;;20.98;14.85;;;;;;;;;;5088751;28;20024;-57
2023/05/30 11:51:52;;;;;;;21.23;13.98;;;;;;;;;;5089985;28;20081;-58
2023/05/30 11:54:18;;;;;;;22.67;15.20;;;;;;;;;;5088278;28;20085;-60
2023/05/30 11:56:44;;;;;;;21.70;14.50;;;;;;;;;;5090279;28;20344;-60
2023/05/30 11:59:11;;;;;;;20.38;14.93;;;;;;;;;;5091779;28;20360;-60
2023/05/30 12:01:37;;;;;;;20.23;14.48;;;;;;;;;;5090255;28;20476;-60
2023/05/30 12:04:05;;;;;;;22.50;14.70;;;;;;;;;;5090803;28;20424;-60
2023/05/30 12:06:31;;;;;;;19.48;14.02;;;;;;;;;;5091266;28;20020;-60
2023/05/30 12:08:57;;;;;;;22.48;15.05;;;;;;;;;;5091542;28;20507;-58
2023/05/30 12:11:23;;;;;;;21.73;14.30;;;;;;;;;;5091526;28;20028;-60
2023/05/30 12:13:54;;;;;;;20.50;14.75;;;;;;;;;;5089688;28;20103;-56
2023/05/30 12:16:20;;;;;;;20.90;14.15;;;;;;;;;;5071109;28;20107;-60
2023/05/30 12:18:46;;;;;;;20.80;14.30;;;;;;;;;;5072256;28;20117;-58
2023/05/30 12:21:12;;;;;;;19.08;14.20;;;;;;;;;;5072677;28;20025;-59
2023/05/30 12:23:46;;;;;;;22.02;15.15;;;;;;;;;;5072293;28;20103;-58
2023/05/30 12:26:18;;;;;;;23.83;15.13;;;;;;;;;;5070297;28;20028;-59
2023/05/30 12:28:46;;;;;;;20.83;14.52;;;;;;;;;;5071313;28;20035;-60
2023/05/30 12:31:21;;;;;;;20.45;15.07;;;;;;;;;;5071234;28;20016;-60
2023/05/30 12:33:47;;;;;;;21.33;14.48;;;;;;;;;;5081788;23;20040;-58
2023/05/30 12:36:13;;;;;;;19.05;14.07;;;;;;;;;;5049148;28;20029;-59
2023/05/30 12:38:39;;;;;;;19.30;14.27;;;;;;;;;;5049919;28;20446;-59
2023/05/30 12:41:06;;;;;;;21.88;14.68;;;;;;;;;;5049634;28;20082;-58
2023/05/30 12:43:32;;;;;;;22.75;14.88;;;;;;;;;;5049966;28;20052;-59
2023/05/30 12:46:03;;;;;;;21.02;15.07;;;;;;;;;;5049330;28;20089;-59
2023/05/30 12:48:29;;;;;;;18.17;13.77;;;;;;;;;;5049741;28;20039;-59
2023/05/30 12:50:55;;;;;;;19.65;14.60;;;;;;;;;;5048562;28;20037;-62
2023/05/30 12:53:21;;;;;;;20.55;14.32;;;;;;;;;;5048818;28;20048;-61
2023/05/30 12:55:47;;;;;;;21.02;15.40;;;;;;;;;;5049088;28;20056;-61
2023/05/30 12:58:13;;;;;;;20.95;14.85;;;;;;;;;;5048766;28;20389;-59
2023/05/30 13:00:39;;;;;;;19.65;14.50;;;;;;;;;;5049867;28;20116;-58
2023/05/30 13:03:06;;;;;;;19.65;14.93;;;;;;;;;;5049513;28;20052;-59
2023/05/30 13:05:32;;;;;;;21.08;14.90;;;;;;;;;;5048741;28;20096;-59
2023/05/30 13:07:57;;;;;;;20.60;14.82;;;;;;;;;;5049254;28;20177;-62
2023/05/30 13:10:23;;;;;;;23.38;15.00;;;;;;;;;;5049494;28;20017;-62
2023/05/30 13:12:50;;;;;;;23.25;14.68;;;;;;;;;;5049439;28;20029;-61
2023/05/30 13:15:16;;;;;;;21.25;15.63;;;;;;;;;;5048589;28;20021;-60
2023/05/30 13:17:42;;;;;;;18.60;14.73;;;;;;;;;;5049432;28;20025;-60
2023/05/30 13:20:08;;;;;;;17.95;13.70;;;;;;;;;;5049381;28;20032;-61
2023/05/30 13:22:34;;;;;;;17.88;14.10;;;;;;;;;;5049331;28;20100;-58
2023/05/30 13:25:00;;;;;;;18.52;14.25;;;;;;;;;;5047981;28;20039;-62
2023/05/30 13:27:26;;;;;;;17.05;13.65;;;;;;;;;;5047676;28;20025;-60
2023/05/30 13:29:52;;;;;;;19.67;13.85;;;;;;;;;;5049324;28;20098;-59
2023/05/30 13:32:18;;;;;;;19.38;14.90;;;;;;;;;;5049274;28;20028;-56
2023/05/30 13:34:44;;;;;;;17.63;14.13;;;;;;;;;;5048221;28;20485;-57
2023/05/30 13:37:10;;;;;;;17.85;14.32;;;;;;;;;;5048428;28;20130;-56
2023/05/30 13:39:37;;;;;;;18.88;14.57;;;;;;;;;;5053168;28;20100;-58
2023/05/30 13:42:05;;;;;;;24.95;16.88;;;;;;;;;;5052749;28;20036;-59
2023/05/30 13:44:31;;;;;;;19.23;14.10;;;;;;;;;;5051856;28;20044;-61
2023/05/30 13:46:57;;;;;;;20.77;15.02;;;;;;;;;;5052789;28;20025;-58
2023/05/30 13:49:32;;;;;;;19.60;16.13;;;;;;;;;;5051531;28;20025;-59
2023/05/30 13:51:58;;;;;;;20.75;15.00;;;;;;;;;;5052840;28;20017;-57
2023/05/30 13:54:23;;;;;;;19.27;14.73;;;;;;;;;;5050943;28;20373;-59
2023/05/30 13:56:50;;;;;;;18.70;14.70;;;;;;;;;;5051062;28;20021;-60
2023/05/30 13:59:16;;;;;;;19.50;14.27;;;;;;;;;;5052445;28;20439;-62
2023/05/30 14:01:42;;;;;;;18.25;14.20;;;;;;;;;;5052264;28;20110;-58
2023/05/30 14:04:08;;;;;;;24.50;15.57;;;;;;;;;;5051859;28;20029;-60
2023/05/30 14:06:34;;;;;;;17.55;13.70;;;;;;;;;;5051939;28;20021;-63
2023/05/30 14:09:00;;;;;;;17.42;13.80;;;;;;;;;;5052642;28;20045;-62
2023/05/30 14:11:26;;;;;;;17.15;14.00;;;;;;;;;;5052179;28;20075;-64
2023/05/30 14:13:52;;;;;;;18.85;15.02;;;;;;;;;;5050056;28;20029;-56
2023/05/30 14:16:18;;;;;;;17.60;14.15;;;;;;;;;;5051866;28;20028;-57
2023/05/30 14:18:46;;;;;;;19.90;14.13;;;;;;;;;;5052519;28;20417;-57